createdAt,value
2023-05-26T00:01:55.853Z,12.37
2023-05-26T00:05:02.878Z,12.31
2023-05-26T00:08:09.522Z,12.27
2023-05-26T00:11:17.170Z,12.20
2023-05-26T00:14:22.360Z,12.19
2023-05-26T00:17:28.146Z,12.12
2023-05-26T00:20:33.631Z,12.12
2023-05-26T00:23:38.792Z,12.17
2023-05-26T00:26:45.272Z,12.16
2023-05-26T00:29:50.834Z,12.16
2023-05-26T00:32:58.702Z,12.15
2023-05-26T00:36:04.180Z,12.06
2023-05-26T00:39:09.414Z,12.11
2023-05-26T00:42:15.952Z,12.12
2023-05-26T00:45:21.203Z,12.09
2023-05-26T00:48:26.448Z,12.07
2023-05-26T00:51:32.652Z,12.01
2023-05-26T00:54:37.970Z,12.02
2023-05-26T00:57:44.757Z,12.06
2023-05-26T01:00:50.172Z,12.04
2023-05-26T01:03:55.934Z,12.06
2023-05-26T01:07:01.459Z,12.07
2023-05-26T01:10:07.501Z,11.97
2023-05-26T01:13:17.796Z,11.91
2023-05-26T01:16:25.453Z,11.82
2023-05-26T01:20:08.273Z,11.92
2023-05-26T01:23:48.111Z,11.93
2023-05-26T01:27:06.007Z,11.93
2023-05-26T01:30:15.540Z,11.95
2023-05-26T01:33:20.910Z,11.94
2023-05-26T01:36:26.656Z,11.96
2023-05-26T01:39:32.279Z,11.92
2023-05-26T01:42:41.828Z,11.88
2023-05-26T01:46:02.508Z,11.76
2023-05-26T01:49:09.700Z,11.74
2023-05-26T01:52:16.393Z,11.88
2023-05-26T01:55:22.746Z,11.85
2023-05-26T01:58:28.525Z,11.82
2023-05-26T02:01:36.707Z,11.85
2023-05-26T02:04:42.491Z,11.91
2023-05-26T02:07:49.329Z,11.81
2023-05-26T02:10:54.530Z,11.85
2023-05-26T02:13:59.721Z,11.80
2023-05-26T02:17:07.369Z,11.82
2023-05-26T02:20:14.906Z,11.91
2023-05-26T02:23:20.134Z,11.98
2023-05-26T02:26:25.218Z,11.97
2023-05-26T02:29:30.450Z,12.07
2023-05-26T02:32:40.157Z,11.98
2023-05-26T02:35:46.216Z,12.04
2023-05-26T02:38:51.700Z,12.00
2023-05-26T02:41:57.030Z,12.10
2023-05-26T02:45:02.449Z,12.12
2023-05-26T02:48:09.459Z,12.22
2023-05-26T02:51:14.511Z,12.16
2023-05-26T02:54:19.790Z,12.16
2023-05-26T02:57:24.908Z,12.13
2023-05-26T03:00:30.240Z,12.16
2023-05-26T03:03:37.253Z,12.15
2023-05-26T03:06:43.059Z,12.21
2023-05-26T03:09:50.260Z,12.20
2023-05-26T03:12:55.725Z,12.29
2023-05-26T03:16:02.795Z,12.24
2023-05-26T03:19:09.406Z,12.17
2023-05-26T03:22:39.315Z,12.19
2023-05-26T03:25:39.753Z,12.13
2023-05-26T03:28:44.962Z,12.11
2023-05-26T03:31:50.924Z,12.22
2023-05-26T03:34:57.514Z,12.31
2023-05-26T03:38:02.801Z,12.25
2023-05-26T03:41:08.048Z,12.24
2023-05-26T03:44:22.951Z,12.30
2023-05-26T03:47:28.120Z,12.38
2023-05-26T03:50:34.706Z,12.44
2023-05-26T03:53:39.850Z,12.38
2023-05-26T03:56:45.425Z,12.42
2023-05-26T03:59:50.629Z,12.32
2023-05-26T04:02:56.271Z,12.46
2023-05-26T04:06:02.896Z,12.49
2023-05-26T04:09:08.649Z,12.47
2023-05-26T04:12:14.273Z,12.55
2023-05-26T04:15:21.220Z,12.72
2023-05-26T04:18:26.338Z,12.67
2023-05-26T04:21:33.926Z,12.73
2023-05-26T04:24:39.241Z,12.85
2023-05-26T04:27:44.637Z,12.74
2023-05-26T04:31:04.728Z,12.76
2023-05-26T04:34:27.577Z,12.86
2023-05-26T04:37:44.266Z,12.76
2023-05-26T04:40:49.598Z,12.85
2023-05-26T04:43:55.562Z,12.84
2023-05-26T04:47:01.772Z,12.93
2023-05-26T04:50:13.790Z,13.05
2023-05-26T04:53:20.892Z,13.05
2023-05-26T04:56:27.302Z,13.01
2023-05-26T04:59:38.806Z,12.88
2023-05-26T05:02:44.816Z,12.89
2023-05-26T05:05:55.821Z,12.84
2023-05-26T05:09:02.475Z,12.92
2023-05-26T05:12:09.614Z,12.92
2023-05-26T05:15:16.293Z,12.97
2023-05-26T05:18:21.534Z,12.93
2023-05-26T05:21:26.755Z,12.87
2023-05-26T05:24:36.855Z,13.00
2023-05-26T05:27:42.197Z,13.19
2023-05-26T05:30:47.671Z,13.41
2023-05-26T05:33:53.204Z,13.26
2023-05-26T05:36:58.389Z,13.56
2023-05-26T05:40:05.371Z,13.53
2023-05-26T05:43:10.875Z,13.59
2023-05-26T05:46:16.332Z,13.98
2023-05-26T05:49:47.849Z,13.78
2023-05-26T05:52:54.375Z,13.84
2023-05-26T05:56:04.540Z,13.95
2023-05-26T05:59:11.988Z,13.84
2023-05-26T06:02:17.437Z,14.32
2023-05-26T06:05:23.225Z,14.10
2023-05-26T06:08:28.443Z,13.70
2023-05-26T06:11:36.114Z,14.10
2023-05-26T06:14:41.528Z,14.31
2023-05-26T06:17:47.024Z,14.53
2023-05-26T06:20:52.739Z,14.31
2023-05-26T06:23:58.219Z,14.71
2023-05-26T06:27:05.306Z,14.27
2023-05-26T06:30:12.311Z,14.26
2023-05-26T06:33:19.901Z,14.58
2023-05-26T06:36:25.197Z,14.86
2023-05-26T06:39:31.798Z,14.91
2023-05-26T06:42:38.364Z,14.68
2023-05-26T06:45:43.762Z,14.81
2023-05-26T06:48:48.970Z,15.06
2023-05-26T06:52:02.373Z,14.98
2023-05-26T06:55:08.441Z,15.05
2023-05-26T06:58:16.957Z,15.33
2023-05-26T07:01:22.426Z,15.33
2023-05-26T07:04:28.979Z,15.06
2023-05-26T07:07:34.033Z,15.13
2023-05-26T07:10:39.421Z,15.23
2023-05-26T07:13:47.175Z,15.53
2023-05-26T07:16:52.498Z,15.56
2023-05-26T07:19:58.442Z,15.23
2023-05-26T07:23:04.161Z,15.41
2023-05-26T07:26:09.512Z,15.58
2023-05-26T07:29:16.203Z,15.80
2023-05-26T07:32:21.355Z,15.67
2023-05-26T07:35:26.897Z,16.17
2023-05-26T07:38:33.005Z,16.22
2023-05-26T07:41:38.434Z,16.19
2023-05-26T07:44:44.887Z,16.17
2023-05-26T07:47:50.130Z,16.30
2023-05-26T07:50:55.253Z,16.43
2023-05-26T07:54:00.908Z,16.44
2023-05-26T07:57:12.775Z,16.21
2023-05-26T08:00:25.356Z,16.26
2023-05-26T08:03:30.687Z,16.43
2023-05-26T08:06:36.772Z,16.46
2023-05-26T08:09:41.933Z,16.45
2023-05-26T08:12:47.175Z,16.52
2023-05-26T08:15:53.663Z,16.44
2023-05-26T08:18:59.047Z,16.43
2023-05-26T08:22:04.321Z,16.14
2023-05-26T08:25:09.916Z,15.84
2023-05-26T08:28:15.173Z,15.89
2023-05-26T08:31:22.144Z,15.82
2023-05-26T08:34:27.286Z,15.90
2023-05-26T08:37:32.495Z,15.98
2023-05-26T08:40:37.634Z,15.94
2023-05-26T08:43:55.823Z,16.06
2023-05-26T08:47:09.150Z,15.71
2023-05-26T08:50:15.196Z,15.98
2023-05-26T08:53:21.463Z,15.97
2023-05-26T08:56:26.906Z,16.04
2023-05-26T08:59:32.596Z,15.97
2023-05-26T09:02:39.265Z,15.90
2023-05-26T09:05:44.422Z,15.89
2023-05-26T09:08:49.712Z,15.79
2023-05-26T09:11:57.847Z,15.88
2023-05-26T09:15:03.272Z,16.03
2023-05-26T09:18:13.128Z,16.12
2023-05-26T09:21:19.591Z,16.06
2023-05-26T09:24:26.712Z,15.91
2023-05-26T09:27:31.798Z,15.97
2023-05-26T09:30:38.833Z,15.73
2023-05-26T09:33:48.707Z,15.82
2023-05-26T09:36:53.849Z,16.13
2023-05-26T09:40:07.754Z,16.27
2023-05-26T09:43:13.967Z,16.11
2023-05-26T09:46:23.737Z,16.20
2023-05-26T09:49:30.417Z,16.43
2023-05-26T09:52:37.316Z,16.19
2023-05-26T09:55:44.701Z,16.17
2023-05-26T09:58:51.133Z,16.13
2023-05-26T10:01:56.643Z,16.01
2023-05-26T10:05:03.268Z,16.00
2023-05-26T10:08:09.282Z,16.29
2023-05-26T10:11:15.726Z,16.27
2023-05-26T10:14:21.299Z,16.21
2023-05-26T10:17:27.487Z,16.25
2023-05-26T10:20:35.310Z,16.26
2023-05-26T10:23:45.604Z,16.30
2023-05-26T10:26:56.629Z,16.30
2023-05-26T10:30:09.935Z,16.31
2023-05-26T10:33:16.548Z,16.35
2023-05-26T10:36:23.217Z,16.52
2023-05-26T10:39:28.404Z,16.56
2023-05-26T10:42:34.006Z,16.56
2023-05-26T10:45:46.917Z,16.72
2023-05-26T10:48:58.973Z,16.64
2023-05-26T10:52:11.755Z,16.64
2023-05-26T10:55:31.290Z,16.54
2023-05-26T10:58:38.706Z,16.64
2023-05-26T11:01:52.520Z,16.30
2023-05-26T11:04:58.204Z,16.26
2023-05-26T11:08:04.760Z,16.15
2023-05-26T11:11:12.156Z,16.25
2023-05-26T11:14:17.367Z,16.30
2023-05-26T11:17:23.756Z,16.34
2023-05-26T11:20:29.599Z,16.54
2023-05-26T11:23:38.836Z,16.69
2023-05-26T11:26:44.812Z,16.53
2023-05-26T11:29:50.934Z,16.52
2023-05-26T11:32:56.154Z,16.61
2023-05-26T11:36:08.749Z,16.73
2023-05-26T11:39:16.401Z,16.82
2023-05-26T11:42:21.710Z,17.17
2023-05-26T11:45:27.126Z,17.38
2023-05-26T11:48:40.577Z,16.73
2023-05-26T11:51:49.722Z,16.85
2023-05-26T11:54:56.259Z,16.68
2023-05-26T11:58:01.441Z,16.89
2023-05-26T12:01:07.911Z,16.66
2023-05-26T12:04:13.306Z,16.92
2023-05-26T12:07:31.948Z,16.93
2023-05-26T12:10:40.278Z,17.10
2023-05-26T12:13:45.676Z,16.89
2023-05-26T12:16:53.129Z,16.78
2023-05-26T12:19:58.652Z,16.64
2023-05-26T12:23:04.200Z,17.04
2023-05-26T12:26:24.967Z,16.77
2023-05-26T12:29:30.209Z,16.74
2023-05-26T12:32:35.550Z,16.73
2023-05-26T12:35:40.715Z,16.62
2023-05-26T12:38:46.004Z,16.86
2023-05-26T12:41:52.574Z,16.63
2023-05-26T12:44:57.673Z,16.82
2023-05-26T12:48:02.994Z,16.69
2023-05-26T12:51:08.280Z,16.81
2023-05-26T12:54:14.836Z,16.82
2023-05-26T12:57:21.367Z,16.74
2023-05-26T13:00:26.570Z,16.81
2023-05-26T13:03:32.376Z,17.19
2023-05-26T13:06:37.902Z,17.29
2023-05-26T13:09:43.748Z,17.58
2023-05-26T13:12:50.260Z,17.54
2023-05-26T13:15:55.904Z,17.40
2023-05-26T13:19:01.102Z,17.69
2023-05-26T13:22:06.357Z,17.70
2023-05-26T13:25:12.024Z,17.73
2023-05-26T13:28:18.541Z,17.50
2023-05-26T13:31:25.134Z,17.69
2023-05-26T13:34:30.391Z,17.37
2023-05-26T13:37:35.763Z,17.20
2023-05-26T13:40:42.062Z,17.18
2023-05-26T13:43:49.498Z,16.90
2023-05-26T13:46:54.745Z,17.03
2023-05-26T13:50:09.331Z,17.01
2023-05-26T13:53:25.569Z,16.99
2023-05-26T13:56:31.479Z,17.03
2023-05-26T13:59:37.979Z,17.07
2023-05-26T14:02:43.326Z,16.94
2023-05-26T14:05:48.540Z,17.06
2023-05-26T14:08:54.457Z,17.27
2023-05-26T14:11:59.610Z,17.13
2023-05-26T14:15:06.971Z,17.06
2023-05-26T14:18:15.824Z,17.42
2023-05-26T14:21:39.819Z,17.70
2023-05-26T14:24:45.985Z,17.65
2023-05-26T14:27:52.207Z,17.73
2023-05-26T14:30:58.827Z,17.27
2023-05-26T14:34:04.496Z,17.41
2023-05-26T14:37:10.109Z,17.47
2023-05-26T14:40:15.864Z,17.59
2023-05-26T14:43:21.553Z,17.54
2023-05-26T14:46:28.363Z,17.39
2023-05-26T14:49:34.128Z,17.42
2023-05-26T14:52:39.368Z,17.57
2023-05-26T14:55:44.693Z,17.57
2023-05-26T14:58:49.963Z,17.45
2023-05-26T15:01:56.552Z,17.25
2023-05-26T15:05:02.278Z,17.28
2023-05-26T15:08:07.692Z,16.93
2023-05-26T15:11:14.138Z,17.07
2023-05-26T15:14:19.202Z,17.24
2023-05-26T15:17:26.292Z,17.32
2023-05-26T15:20:33.912Z,17.52
2023-05-26T15:23:39.158Z,17.43
2023-05-26T15:26:44.290Z,17.45
2023-05-26T15:29:49.770Z,17.19
2023-05-26T15:32:56.663Z,16.90
2023-05-26T15:36:01.911Z,17.09
2023-05-26T15:39:07.132Z,17.41
2023-05-26T15:42:13.150Z,17.98
2023-05-26T15:45:18.392Z,17.94
2023-05-26T15:48:25.287Z,18.05
2023-05-26T15:51:30.452Z,17.58
2023-05-26T15:54:35.581Z,17.77
2023-05-26T15:57:40.753Z,17.40
2023-05-26T16:00:46.080Z,17.53
2023-05-26T16:03:52.588Z,17.62
2023-05-26T16:06:57.762Z,17.67
2023-05-26T16:10:02.890Z,18.27
2023-05-26T16:13:08.511Z,17.68
2023-05-26T16:16:14.033Z,17.82
2023-05-26T16:19:20.734Z,17.75
2023-05-26T16:22:25.950Z,17.68
2023-05-26T16:25:31.144Z,17.24
2023-05-26T16:28:36.441Z,17.60
2023-05-26T16:31:41.596Z,17.77
2023-05-26T16:34:48.213Z,17.70
2023-05-26T16:37:53.375Z,17.70
2023-05-26T16:40:59.583Z,17.50
2023-05-26T16:44:04.720Z,17.04
2023-05-26T16:47:12.835Z,17.11
2023-05-26T16:50:19.598Z,17.13
2023-05-26T16:53:24.710Z,17.08
2023-05-26T16:56:29.820Z,17.27
2023-05-26T16:59:34.939Z,16.98
2023-05-26T17:02:40.215Z,16.91
2023-05-26T17:05:46.952Z,16.77
2023-05-26T17:08:52.028Z,16.86
2023-05-26T17:11:58.207Z,16.73
2023-05-26T17:15:03.912Z,16.65
2023-05-26T17:18:09.593Z,16.70
2023-05-26T17:21:16.620Z,16.81
2023-05-26T17:24:22.022Z,16.62
2023-05-26T17:27:27.422Z,16.64
2023-05-26T17:30:33.060Z,16.80
2023-05-26T17:33:38.204Z,16.73
2023-05-26T17:36:45.104Z,16.70
2023-05-26T17:39:50.404Z,16.04
2023-05-26T17:42:55.870Z,15.62
2023-05-26T17:46:01.154Z,15.42
2023-05-26T17:49:06.448Z,15.00
2023-05-26T17:52:13.862Z,15.18
2023-05-26T17:55:20.486Z,14.68
2023-05-26T17:58:26.183Z,14.81
2023-05-26T18:01:31.276Z,14.93
2023-05-26T18:04:36.442Z,14.58
2023-05-26T18:07:42.934Z,14.53
2023-05-26T18:10:48.389Z,14.56
2023-05-26T18:13:53.867Z,14.37
2023-05-26T18:16:59.186Z,14.13
2023-05-26T18:20:04.866Z,13.97
2023-05-26T18:23:12.197Z,13.68
2023-05-26T18:26:17.577Z,13.79
2023-05-26T18:29:23.500Z,13.83
2023-05-26T18:32:28.969Z,14.05
2023-05-26T18:35:34.275Z,13.90
2023-05-26T18:38:41.253Z,13.86
2023-05-26T18:41:46.604Z,13.75
2023-05-26T18:44:52.142Z,13.41
2023-05-26T18:47:57.338Z,13.40
2023-05-26T18:51:03.433Z,13.26
2023-05-26T18:54:10.039Z,13.23
2023-05-26T18:57:15.257Z,13.26
2023-05-26T19:00:20.589Z,13.08
2023-05-26T19:03:26.397Z,13.18
2023-05-26T19:06:32.731Z,13.01
2023-05-26T19:09:39.561Z,12.92
2023-05-26T19:12:44.711Z,12.97
2023-05-26T19:15:50.213Z,12.59
2023-05-26T19:18:55.559Z,12.79
2023-05-26T19:22:01.189Z,13.15
2023-05-26T19:25:09.263Z,12.74
2023-05-26T19:28:18.159Z,12.75
2023-05-26T19:31:24.437Z,12.74
2023-05-26T19:34:29.885Z,12.65
2023-05-26T19:37:35.957Z,12.80
2023-05-26T19:40:42.895Z,12.77
2023-05-26T19:43:48.353Z,12.79
2023-05-26T19:46:55.861Z,12.66
2023-05-26T19:50:01.293Z,12.76
2023-05-26T19:53:06.527Z,12.55
2023-05-26T19:56:14.739Z,12.72
2023-05-26T19:59:19.902Z,12.90
2023-05-26T20:02:25.183Z,12.81
2023-05-26T20:05:30.287Z,12.55
2023-05-26T20:08:36.364Z,12.46
2023-05-26T20:11:42.912Z,12.15
2023-05-26T20:14:48.039Z,12.27
2023-05-26T20:17:53.366Z,12.45
2023-05-26T20:20:59.006Z,12.65
2023-05-26T20:24:04.193Z,12.72
2023-05-26T20:27:10.804Z,12.77
2023-05-26T20:30:16.133Z,12.76
2023-05-26T20:33:21.605Z,12.79
2023-05-26T20:36:26.982Z,12.89
2023-05-26T20:39:32.318Z,12.63
2023-05-26T20:42:38.760Z,12.66
2023-05-26T20:45:44.145Z,12.75
2023-05-26T20:48:49.234Z,12.84
2023-05-26T20:51:55.058Z,12.66
2023-05-26T20:55:00.615Z,12.73
2023-05-26T20:58:07.377Z,12.73
2023-05-26T21:01:13.158Z,12.77
2023-05-26T21:04:18.324Z,12.52
2023-05-26T21:07:23.639Z,12.70
2023-05-26T21:10:28.815Z,12.63
2023-05-26T21:13:35.391Z,12.58
2023-05-26T21:16:41.142Z,12.48
2023-05-26T21:19:46.529Z,12.39
2023-05-26T21:22:51.976Z,12.44
2023-05-26T21:25:57.358Z,12.30
2023-05-26T21:29:03.852Z,12.31
2023-05-26T21:32:09.301Z,12.26
2023-05-26T21:35:15.272Z,12.19
2023-05-26T21:38:20.311Z,12.18
2023-05-26T21:41:25.546Z,12.21
2023-05-26T21:44:32.109Z,12.18
2023-05-26T21:47:37.302Z,12.03
2023-05-26T21:50:42.553Z,12.03
2023-05-26T21:53:47.788Z,12.07
2023-05-26T21:56:52.933Z,12.06
2023-05-26T21:59:59.474Z,12.12
2023-05-26T22:03:04.944Z,12.02
2023-05-26T22:06:11.219Z,11.98
2023-05-26T22:09:16.455Z,11.91
2023-05-26T22:12:22.038Z,11.91
2023-05-26T22:15:29.129Z,11.84
2023-05-26T22:18:34.878Z,11.66
2023-05-26T22:21:39.943Z,11.70
2023-05-26T22:24:45.114Z,11.68
2023-05-26T22:27:50.518Z,11.50
2023-05-26T22:31:03.798Z,11.57
2023-05-26T22:34:08.943Z,11.52
2023-05-26T22:37:15.047Z,11.47
2023-05-26T22:40:20.212Z,11.40
2023-05-26T22:43:25.952Z,11.30
2023-05-26T22:46:32.644Z,11.38
2023-05-26T22:49:37.842Z,11.26
2023-05-26T22:52:42.883Z,11.28
2023-05-26T22:55:56.906Z,11.28
2023-05-26T22:59:06.215Z,11.13
2023-05-26T23:02:13.593Z,11.22
2023-05-26T23:05:18.753Z,11.27
2023-05-26T23:08:23.848Z,11.12
2023-05-26T23:11:28.925Z,11.20
2023-05-26T23:14:34.324Z,10.99
2023-05-26T23:17:41.069Z,11.10
2023-05-26T23:20:46.277Z,11.05
2023-05-26T23:23:51.772Z,11.01
2023-05-26T23:26:57.028Z,10.92
2023-05-26T23:30:02.127Z,10.92
2023-05-26T23:33:09.001Z,10.95
2023-05-26T23:36:14.283Z,10.82
2023-05-26T23:39:19.494Z,10.71
2023-05-26T23:42:24.698Z,10.88
2023-05-26T23:45:30.033Z,10.90
2023-05-26T23:48:36.499Z,10.88
2023-05-26T23:51:41.747Z,10.86
2023-05-26T23:54:46.973Z,10.81
2023-05-26T23:57:52.125Z,10.57
